Time;durP1;ratioP1;P1;durP2;ratioP2;P2;SDS_P1;SDS_P2;PMS_P1;PMS_P2;Temp;Humidity;BMP_temperature;BMP_pressure;BME280_temperature;BME280_humidity;BME280_pressure;Samples;Min_cycle;Max_cycle;Signal;HPM_P1;HPM_P2
2022/05/25 00:01:38;;;;;;;2.00;1.52;;;12.50;99.90;;;;;;4986630;28;20106;-72
2022/05/25 00:04:05;;;;;;;5.72;1.95;;;12.50;99.90;;;;;;4986380;28;20081;-72
2022/05/25 00:06:32;;;;;;;4.00;1.55;;;12.50;99.90;;;;;;4986787;28;20027;-71
2022/05/25 00:08:58;;;;;;;5.43;1.77;;;12.50;99.90;;;;;;4986072;28;20035;-72
2022/05/25 00:11:24;;;;;;;2.88;1.73;;;12.50;99.90;;;;;;4986311;28;20034;-71
2022/05/25 00:14:00;;;;;;;3.10;1.73;;;12.60;99.90;;;;;;4985401;28;20085;-73
2022/05/25 00:16:26;;;;;;;4.07;1.88;;;12.60;99.90;;;;;;4985868;28;20031;-72
2022/05/25 00:21:56;;;;;;;2.55;1.75;;;12.60;99.90;;;;;;4964766;29;20155;-71
2022/05/25 00:24:21;;;;;;;6.47;1.58;;;12.60;99.90;;;;;;4964652;28;20522;-73
2022/05/25 00:26:47;;;;;;;2.92;1.63;;;12.60;99.90;;;;;;4974682;28;20045;-74
2022/05/25 00:29:14;;;;;;;2.90;1.70;;;12.60;99.90;;;;;;4985782;28;20398;-73
2022/05/25 00:31:40;;;;;;;3.45;1.50;;;12.60;99.90;;;;;;4984800;28;20039;-74
2022/05/25 00:34:13;;;;;;;3.83;1.80;;;12.60;99.90;;;;;;4984610;28;20074;-75
2022/05/25 00:36:39;;;;;;;4.60;1.92;;;12.50;99.90;;;;;;4984844;28;20040;-72
2022/05/25 00:39:05;;;;;;;2.75;1.75;;;12.50;99.90;;;;;;4984226;28;20038;-72
2022/05/25 00:41:31;;;;;;;2.85;1.73;;;12.50;99.90;;;;;;4984905;28;20038;-73
2022/05/25 00:43:57;;;;;;;5.18;1.88;;;12.50;99.90;;;;;;4985564;28;20023;-73
2022/05/25 00:46:24;;;;;;;4.57;2.00;;;12.40;99.90;;;;;;4986037;28;20070;-73
2022/05/25 00:49:22;;;;;;;2.45;2.03;;;12.50;99.90;;;;;;4985698;28;20026;-71
2022/05/25 00:51:53;;;;;;;3.38;1.75;;;12.50;99.90;;;;;;4985388;28;20089;-73
2022/05/25 00:54:27;;;;;;;2.45;1.80;;;12.40;99.90;;;;;;4985676;28;20509;-74
2022/05/25 00:56:55;;;;;;;4.75;1.58;;;12.40;99.90;;;;;;4984364;28;20042;-72
2022/05/25 00:59:26;;;;;;;4.43;2.30;;;12.40;99.90;;;;;;4985888;28;20027;-71
2022/05/25 01:01:52;;;;;;;3.58;1.95;;;12.40;99.90;;;;;;4985776;28;20031;-72
2022/05/25 01:04:18;;;;;;;5.68;2.45;;;12.30;99.90;;;;;;4984197;28;20043;-72
2022/05/25 01:07:19;;;;;;;4.50;2.65;;;12.30;99.90;;;;;;4985452;28;20033;-72
2022/05/25 01:10:13;;;;;;;3.20;1.85;;;12.20;99.90;;;;;;4985235;28;20023;-72
2022/05/25 01:12:48;;;;;;;3.55;2.30;;;12.20;99.90;;;;;;4985157;28;20082;-74
2022/05/25 01:15:16;;;;;;;5.28;2.35;;;12.20;99.90;;;;;;4985878;28;20035;-73
2022/05/25 01:18:00;;;;;;;4.97;2.50;;;12.20;99.90;;;;;;4989208;28;20035;-71
2022/05/25 01:20:50;;;;;;;3.70;1.65;;;12.10;99.90;;;;;;4988809;28;20033;-72
2022/05/25 01:23:47;;;;;;;3.75;2.28;;;12.10;99.90;;;;;;4989241;28;20034;-72
2022/05/25 01:26:41;;;;;;;5.18;2.50;;;12.00;99.90;;;;;;4989304;28;20277;-70
2022/05/25 01:29:35;;;;;;;2.65;1.88;;;12.00;99.90;;;;;;4989665;28;20037;-73
2022/05/25 01:32:31;;;;;;;3.13;1.90;;;11.90;99.90;;;;;;4988855;28;20051;-73
2022/05/25 01:35:05;;;;;;;3.53;2.22;;;11.90;99.90;;;;;;4989046;28;20034;-72
2022/05/25 01:37:51;;;;;;;;;;;11.90;99.90;;;;;;4989920;28;20022;-72
2022/05/25 01:40:34;;;;;;;6.60;2.20;;;11.80;99.90;;;;;;4988713;28;19917;-71
2022/05/25 01:43:20;;;;;;;4.30;2.42;;;11.80;99.90;;;;;;4989152;28;20039;-73
2022/05/25 01:46:10;;;;;;;3.25;2.22;;;11.80;99.90;;;;;;4988674;28;20027;-74
2022/05/25 01:48:39;;;;;;;5.75;2.60;;;11.80;99.90;;;;;;4988832;28;20035;-75
2022/05/25 01:51:16;;;;;;;3.67;2.50;;;11.80;99.90;;;;;;4989216;28;20443;-73
2022/05/25 01:53:47;;;;;;;3.13;2.17;;;11.70;99.90;;;;;;4987266;28;20153;-73
2022/05/25 01:56:16;;;;;;;4.22;3.03;;;11.70;99.90;;;;;;4988758;28;20038;-73
2022/05/25 01:58:46;;;;;;;3.03;2.40;;;11.70;99.90;;;;;;4988733;28;20026;-73
2022/05/25 02:01:13;;;;;;;6.78;2.53;;;11.70;99.90;;;;;;4987173;28;20051;-71
2022/05/25 02:06:54;;;;;;;3.50;2.22;;;11.60;99.90;;;;;;4988915;28;20045;-73
2022/05/25 02:10:04;;;;;;;2.53;1.90;;;11.60;99.90;;;;;;4988479;28;20030;-72
2022/05/25 02:12:55;;;;;;;6.70;2.00;;;11.60;99.90;;;;;;4987257;28;20047;-72
2022/05/25 02:15:38;;;;;;;4.50;2.50;;;11.50;99.90;;;;;;4988259;28;20027;-72
2022/05/25 02:18:06;;;;;;;3.38;2.20;;;11.50;99.90;;;;;;4988049;28;20054;-73
2022/05/25 02:20:49;;;;;;;3.53;2.50;;;11.60;99.90;;;;;;4987394;28;20102;-72
2022/05/25 02:23:21;;;;;;;7.63;2.75;;;11.50;99.90;;;;;;4988326;28;20031;-73
2022/05/25 02:26:12;;;;;;;4.75;2.47;;;11.40;99.90;;;;;;4988392;28;20041;-73
2022/05/25 02:28:47;;;;;;;3.53;2.25;;;11.40;99.90;;;;;;4985814;28;20415;-72
2022/05/25 02:31:18;;;;;;;5.32;2.53;;;11.40;99.90;;;;;;4987764;28;20062;-73
2022/05/25 02:33:48;;;;;;;5.53;2.47;;;11.40;99.90;;;;;;4988480;28;20034;-73
2022/05/25 02:36:15;;;;;;;5.05;2.65;;;11.40;99.90;;;;;;4986048;28;20104;-71
2022/05/25 02:38:43;;;;;;;5.28;2.15;;;11.40;99.90;;;;;;4988309;28;20463;-73
2022/05/25 02:41:24;;;;;;;3.42;2.40;;;11.30;99.90;;;;;;4988206;28;20038;-72
2022/05/25 02:43:49;;;;;;;2.55;2.08;;;11.30;99.90;;;;;;4986697;28;20031;-74
2022/05/25 02:46:15;;;;;;;4.95;2.90;;;11.30;99.90;;;;;;4988267;28;20041;-72
2022/05/25 02:48:41;;;;;;;4.35;2.67;;;11.30;99.90;;;;;;4987909;28;20038;-72
2022/05/25 02:51:08;;;;;;;7.53;3.05;;;11.20;99.90;;;;;;4987493;28;20123;-72
2022/05/25 02:53:34;;;;;;;4.70;2.50;;;11.20;99.90;;;;;;4986348;28;20117;-74
2022/05/25 02:56:01;;;;;;;4.18;2.35;;;11.20;99.90;;;;;;4987969;28;20030;-76
2022/05/25 02:58:27;;;;;;;4.38;2.63;;;11.20;99.90;;;;;;4986635;28;20027;-73
2022/05/25 03:00:53;;;;;;;4.90;2.53;;;11.10;99.90;;;;;;4987799;28;20030;-73
2022/05/25 03:03:19;;;;;;;3.83;2.00;;;11.10;99.90;;;;;;4987155;28;20503;-73
2022/05/25 03:05:58;;;;;;;9.70;2.92;;;11.00;99.90;;;;;;4987364;28;20038;-73
2022/05/25 03:08:24;;;;;;;5.50;2.78;;;11.00;99.90;;;;;;4986139;28;20089;-74
2022/05/25 03:10:49;;;;;;;5.40;2.95;;;11.00;99.90;;;;;;4986032;28;20027;-73
2022/05/25 03:13:15;;;;;;;3.85;2.70;;;11.00;99.90;;;;;;4986044;28;20050;-74
2022/05/25 03:15:41;;;;;;;5.82;3.40;;;11.00;99.90;;;;;;4987664;28;20026;-71
2022/05/25 03:18:07;;;;;;;4.47;2.88;;;11.00;99.90;;;;;;4987105;28;20026;-73
2022/05/25 03:20:33;;;;;;;5.38;3.05;;;11.00;99.90;;;;;;4987143;28;20094;-73
2022/05/25 03:22:59;;;;;;;4.22;3.03;;;11.00;99.90;;;;;;4987517;28;20034;-72
2022/05/25 03:25:25;;;;;;;9.98;3.35;;;11.00;99.90;;;;;;4985728;28;20608;-74
2022/05/25 03:27:51;;;;;;;8.48;3.90;;;11.00;99.90;;;;;;4986879;28;20030;-74
2022/05/25 03:30:20;;;;;;;7.75;3.13;;;11.00;99.90;;;;;;4986021;28;20139;-72
2022/05/25 03:32:46;;;;;;;6.72;3.55;;;11.00;99.90;;;;;;4987137;28;20039;-74
2022/05/25 03:35:11;;;;;;;5.68;3.55;;;11.00;99.90;;;;;;4987209;28;20501;-74
2022/05/25 03:37:38;;;;;;;5.20;3.47;;;11.00;99.90;;;;;;4985691;28;20037;-72
2022/05/25 03:40:08;;;;;;;5.50;2.97;;;11.10;99.90;;;;;;4986799;28;20031;-74
2022/05/25 03:42:35;;;;;;;5.38;3.95;;;11.00;99.90;;;;;;4975732;28;20149;-72
2022/05/25 03:45:03;;;;;;;7.30;4.25;;;11.00;99.90;;;;;;4965885;28;20452;-72
2022/05/25 03:47:29;;;;;;;6.63;4.07;;;11.00;99.90;;;;;;4985651;28;20030;-72
2022/05/25 03:49:54;;;;;;;5.45;3.40;;;11.00;99.90;;;;;;4986808;28;20061;-74
2022/05/25 03:52:21;;;;;;;5.88;3.85;;;11.00;99.90;;;;;;4986282;28;20042;-72
2022/05/25 03:54:47;;;;;;;5.15;3.80;;;11.00;99.90;;;;;;4986358;28;20099;-73
2022/05/25 03:57:12;;;;;;;7.80;4.50;;;11.00;99.90;;;;;;4986533;28;20034;-75
2022/05/25 03:59:38;;;;;;;5.95;4.00;;;11.00;99.90;;;;;;4986484;28;20034;-73
2022/05/25 04:02:04;;;;;;;10.50;3.35;;;11.00;99.90;;;;;;4985519;28;20030;-73
2022/05/25 04:04:30;;;;;;;7.95;4.15;;;11.00;99.90;;;;;;4985472;28;20022;-72
2022/05/25 04:06:55;;;;;;;7.07;3.72;;;11.00;99.90;;;;;;4984503;28;20125;-73
2022/05/25 04:09:21;;;;;;;7.20;4.05;;;11.00;99.90;;;;;;4985750;28;20033;-74
2022/05/25 04:11:47;;;;;;;9.15;4.75;;;11.10;99.90;;;;;;4986514;28;20039;-73
2022/05/25 04:14:15;;;;;;;9.48;5.22;;;11.10;99.90;;;;;;4986405;28;20102;-75
2022/05/25 04:16:51;;;;;;;10.70;4.78;;;11.10;99.90;;;;;;4980050;28;20110;-77
2022/05/25 04:19:17;;;;;;;9.40;4.78;;;11.20;99.90;;;;;;4972656;28;20099;-77
2022/05/25 04:21:43;;;;;;;7.55;5.07;;;11.10;99.90;;;;;;4985005;28;20023;-79
2022/05/25 04:24:12;;;;;;;6.88;3.97;;;11.20;99.90;;;;;;4985661;28;20032;-76
2022/05/25 04:26:38;;;;;;;6.75;4.28;;;11.20;99.90;;;;;;4972830;28;20091;-76
2022/05/25 04:29:04;;;;;;;9.73;5.25;;;11.20;99.90;;;;;;4980464;28;20062;-78
2022/05/25 04:31:29;;;;;;;10.35;5.20;;;11.20;99.90;;;;;;4979991;28;20045;-80
2022/05/25 04:33:55;;;;;;;8.60;5.03;;;11.20;99.90;;;;;;4978961;28;20019;-79
2022/05/25 04:36:21;;;;;;;8.45;5.03;;;11.20;99.90;;;;;;4982937;28;20046;-78
2022/05/25 04:38:46;;;;;;;9.70;5.35;;;11.30;99.90;;;;;;4971092;28;20055;-80
2022/05/25 04:41:12;;;;;;;13.25;5.75;;;11.30;99.90;;;;;;4980950;28;20038;-77
2022/05/25 04:43:39;;;;;;;8.18;5.40;;;11.30;99.90;;;;;;4970244;28;20148;-75
2022/05/25 04:46:11;;;;;;;7.75;4.90;;;11.30;99.90;;;;;;4985732;28;20030;-75
2022/05/25 04:48:38;;;;;;;8.10;5.20;;;11.40;99.90;;;;;;4976960;28;20062;-80
2022/05/25 04:51:04;;;;;;;6.38;4.28;;;11.30;99.90;;;;;;4973471;28;20041;-77
2022/05/25 04:53:30;;;;;;;7.20;4.70;;;11.40;99.90;;;;;;4977864;28;20147;-79
2022/05/25 04:58:47;;;;;;;10.27;5.40;;;11.50;99.90;;;;;;4977303;28;20034;-77
2022/05/25 05:01:19;;;;;;;7.72;5.28;;;11.60;99.90;;;;;;4981780;28;20050;-80
2022/05/25 05:03:45;;;;;;;9.07;4.75;;;11.60;99.90;;;;;;4985352;28;20027;-77
2022/05/25 05:06:12;;;;;;;7.78;4.68;;;11.70;99.90;;;;;;4983703;28;20027;-78
2022/05/25 05:08:38;;;;;;;8.85;5.45;;;11.70;99.90;;;;;;4967892;28;20035;-79
2022/05/25 05:11:22;;;;;;;10.75;5.60;;;11.70;99.90;;;;;;4981552;28;20035;-75
2022/05/25 05:13:47;;;;;;;10.60;6.05;;;11.80;99.90;;;;;;4970239;28;20039;-76
2022/05/25 05:16:15;;;;;;;11.18;4.80;;;11.80;99.90;;;;;;4985008;28;20031;-78
2022/05/25 05:18:42;;;;;;;11.40;5.85;;;11.90;99.90;;;;;;4984847;28;20410;-79
2022/05/25 05:21:09;;;;;;;10.30;5.88;;;11.90;99.90;;;;;;4978855;28;20034;-84
2022/05/25 05:23:37;;;;;;;8.88;5.18;;;12.00;99.90;;;;;;4984161;28;20023;-79
2022/05/25 05:26:04;;;;;;;7.38;4.35;;;12.00;99.90;;;;;;4976022;28;20728;-77
2022/05/25 05:28:42;;;;;;;7.82;5.15;;;12.00;99.90;;;;;;4966008;28;20019;-77
2022/05/25 05:31:09;;;;;;;10.77;4.95;;;12.00;99.90;;;;;;4965083;29;20043;-80
2022/05/25 05:33:35;;;;;;;8.88;5.15;;;12.10;99.90;;;;;;4966232;28;20031;-76
2022/05/25 05:36:18;;;;;;;9.45;5.50;;;12.20;99.90;;;;;;4977232;28;20030;-78
2022/05/25 05:38:51;;;;;;;6.07;4.00;;;12.20;99.90;;;;;;4982312;28;20034;-72
2022/05/25 05:41:21;;;;;;;7.55;4.90;;;12.30;99.90;;;;;;4982777;28;20117;-77
2022/05/25 05:43:47;;;;;;;8.38;4.65;;;12.30;99.90;;;;;;4980043;28;20054;-77
2022/05/25 05:46:13;;;;;;;7.45;4.35;;;12.30;99.90;;;;;;4985510;28;20049;-75
2022/05/25 05:48:39;;;;;;;7.63;4.75;;;12.40;99.90;;;;;;4985611;28;20075;-82
2022/05/25 05:51:05;;;;;;;7.22;4.50;;;12.40;99.90;;;;;;4976122;28;20046;-75
2022/05/25 05:53:33;;;;;;;7.47;4.20;;;12.50;99.90;;;;;;4966606;28;20062;-74
2022/05/25 05:55:59;;;;;;;9.27;4.90;;;12.50;99.90;;;;;;4966230;28;20034;-74
2022/05/25 05:58:25;;;;;;;7.55;4.05;;;12.60;99.90;;;;;;4984723;28;20023;-73
2022/05/25 06:00:51;;;;;;;8.93;4.68;;;12.60;99.90;;;;;;4981283;28;20030;-79
2022/05/25 06:03:17;;;;;;;7.57;4.35;;;12.70;99.90;;;;;;4972819;28;20034;-74
2022/05/25 06:05:46;;;;;;;8.60;4.13;;;12.80;99.90;;;;;;4979239;28;20024;-72
2022/05/25 06:08:16;;;;;;;14.60;4.32;;;12.90;99.90;;;;;;4985727;28;20038;-71
2022/05/25 06:10:42;;;;;;;7.72;4.22;;;12.80;99.90;;;;;;4987071;28;20119;-73
2022/05/25 06:13:08;;;;;;;7.68;4.07;;;13.00;99.90;;;;;;4984583;28;20034;-73
2022/05/25 06:21:09;;;;;;;6.90;3.75;;;13.20;99.90;;;;;;4968684;29;20035;-72
2022/05/25 06:23:34;;;;;;;10.32;4.68;;;13.20;99.90;;;;;;4985766;28;20494;-72
2022/05/25 06:26:00;;;;;;;7.32;4.07;;;13.30;99.90;;;;;;4980356;28;20034;-75
2022/05/25 06:28:25;;;;;;;9.20;4.28;;;13.30;99.90;;;;;;4984016;28;20038;-78
2022/05/25 06:30:52;;;;;;;8.88;4.50;;;13.40;99.90;;;;;;4984952;28;20035;-76
2022/05/25 06:33:18;;;;;;;6.65;4.22;;;13.40;99.90;;;;;;4977393;28;20039;-71
2022/05/25 06:35:43;;;;;;;6.13;4.35;;;13.50;99.90;;;;;;4967339;29;20555;-73
2022/05/25 06:38:09;;;;;;;10.95;4.60;;;13.50;99.90;;;;;;4982840;28;20428;-71
2022/05/25 06:40:35;;;;;;;7.43;4.30;;;13.50;99.90;;;;;;4985163;28;20704;-75
2022/05/25 06:43:00;;;;;;;7.55;3.80;;;13.60;99.90;;;;;;4985647;28;20022;-75
2022/05/25 06:45:26;;;;;;;9.75;4.55;;;13.70;99.90;;;;;;4986965;28;20042;-75
2022/05/25 06:47:52;;;;;;;7.65;4.85;;;13.80;99.90;;;;;;4985042;28;20548;-74
2022/05/25 06:50:18;;;;;;;14.57;5.40;;;13.80;99.90;;;;;;4980327;28;20176;-77
2022/05/25 06:52:43;;;;;;;9.73;5.03;;;13.80;99.90;;;;;;4977155;28;20050;-76
2022/05/25 06:55:09;;;;;;;7.82;4.50;;;13.90;99.90;;;;;;4973812;28;20023;-78
2022/05/25 06:57:35;;;;;;;8.43;4.47;;;14.00;99.90;;;;;;4983056;28;20027;-74
2022/05/25 07:00:00;;;;;;;11.13;4.78;;;14.00;99.90;;;;;;4984109;28;21018;-70
2022/05/25 07:02:26;;;;;;;7.45;4.15;;;14.10;99.90;;;;;;4981984;28;20031;-69
2022/05/25 07:04:53;;;;;;;6.25;3.75;;;14.10;99.90;;;;;;4985082;28;20027;-70
2022/05/25 07:07:19;;;;;;;7.00;3.67;;;14.10;99.90;;;;;;4986844;28;20050;-75
2022/05/25 07:09:45;;;;;;;6.25;3.65;;;14.20;99.90;;;;;;4983940;28;20451;-73
2022/05/25 07:12:10;;;;;;;4.95;3.50;;;14.30;99.90;;;;;;4979865;28;20034;-72
2022/05/25 07:14:39;;;;;;;5.80;3.90;;;14.40;99.90;;;;;;4977367;28;20032;-72
2022/05/25 07:17:05;;;;;;;7.05;3.33;;;14.30;99.90;;;;;;4978604;28;20074;-70
2022/05/25 07:19:31;;;;;;;6.15;4.05;;;14.50;99.90;;;;;;4972103;28;20032;-70
2022/05/25 07:21:57;;;;;;;6.85;3.45;;;14.50;99.90;;;;;;4969930;28;20026;-70
2022/05/25 07:24:22;;;;;;;5.72;3.25;;;14.60;99.90;;;;;;4975438;28;20027;-71
2022/05/25 07:26:48;;;;;;;6.38;2.97;;;14.70;99.90;;;;;;4968025;28;20035;-74
2022/05/25 07:29:14;;;;;;;5.75;3.42;;;14.80;99.90;;;;;;4973717;28;20065;-72
2022/05/25 07:31:50;;;;;;;4.20;2.85;;;14.80;99.90;;;;;;4982619;28;20043;-76
2022/05/25 07:34:43;;;;;;;5.50;3.05;;;14.90;99.90;;;;;;4981704;28;20027;-75
2022/05/25 07:37:19;;;;;;;5.90;2.95;;;14.90;99.90;;;;;;4982252;28;20055;-70
2022/05/25 07:39:50;;;;;;;5.80;2.80;;;15.00;99.90;;;;;;4967439;28;20036;-70
2022/05/25 07:42:18;;;;;;;9.45;2.65;;;15.10;99.90;;;;;;4981888;28;20439;-72
2022/05/25 07:44:55;;;;;;;3.65;2.00;;;15.10;99.90;;;;;;4986185;28;20034;-73
2022/05/25 07:47:22;;;;;;;3.78;2.22;;;15.20;99.90;;;;;;4981695;28;20031;-71
2022/05/25 07:49:48;;;;;;;4.10;2.15;;;15.20;99.90;;;;;;4969060;28;20023;-81
2022/05/25 07:52:14;;;;;;;4.43;2.75;;;15.30;99.90;;;;;;4986736;28;20081;-73
2022/05/25 07:54:45;;;;;;;4.35;2.17;;;15.20;99.90;;;;;;4984025;28;20027;-74
2022/05/25 07:57:13;;;;;;;2.97;2.00;;;15.30;99.90;;;;;;4980661;28;20039;-74
2022/05/25 07:59:39;;;;;;;3.28;2.50;;;15.40;99.90;;;;;;4983016;28;20030;-73
2022/05/25 08:07:55;;;;;;;5.05;2.10;;;15.70;99.90;;;;;;4973626;28;20062;-71
2022/05/25 08:10:25;;;;;;;5.40;2.28;;;15.60;99.90;;;;;;4966524;29;20023;-72
2022/05/25 08:12:55;;;;;;;2.80;1.85;;;15.80;99.90;;;;;;4970476;28;20049;-72
2022/05/25 08:15:20;;;;;;;3.83;2.25;;;15.80;99.90;;;;;;4968590;28;20031;-72
2022/05/25 08:17:46;;;;;;;2.90;1.75;;;16.00;99.90;;;;;;4966474;28;20039;-72
2022/05/25 08:20:19;;;;;;;3.85;1.75;;;16.00;99.90;;;;;;4977204;28;20038;-74
2022/05/25 08:22:45;;;;;;;2.78;1.98;;;16.10;99.90;;;;;;4984972;28;20066;-73
2022/05/25 08:25:17;;;;;;;4.40;2.13;;;16.10;99.90;;;;;;4979205;28;20588;-76
2022/05/25 08:27:43;;;;;;;4.10;2.00;;;16.20;99.90;;;;;;4978325;28;20031;-72
2022/05/25 08:30:16;;;;;;;2.45;1.60;;;16.10;99.90;;;;;;4970852;28;20082;-70
2022/05/25 08:32:42;;;;;;;4.03;2.00;;;16.30;99.90;;;;;;4979483;28;20066;-73
2022/05/25 08:35:09;;;;;;;4.05;1.88;;;16.30;99.90;;;;;;4969358;28;20054;-72
2022/05/25 08:37:37;;;;;;;2.35;1.42;;;16.30;99.90;;;;;;4973100;28;20031;-74
2022/05/25 08:40:06;;;;;;;3.50;1.90;;;16.40;99.90;;;;;;4970233;28;20027;-72
2022/05/25 08:42:44;;;;;;;2.00;1.30;;;16.50;99.90;;;;;;4986171;28;20031;-76
2022/05/25 08:45:10;;;;;;;4.93;1.33;;;16.50;99.90;;;;;;4976420;28;20039;-72
2022/05/25 08:47:41;;;;;;;2.45;1.38;;;16.60;99.90;;;;;;4973029;28;20068;-76
2022/05/25 08:50:08;;;;;;;4.00;1.30;;;16.60;99.90;;;;;;4974190;28;20151;-70
2022/05/25 08:52:36;;;;;;;1.88;1.20;;;16.60;99.90;;;;;;4980279;28;20090;-73
2022/05/25 08:55:06;;;;;;;2.50;1.33;;;16.70;99.90;;;;;;4985935;28;20031;-71
2022/05/25 08:58:01;;;;;;;2.92;1.33;;;16.80;99.90;;;;;;4986058;28;20023;-70
2022/05/25 09:00:26;;;;;;;3.85;0.90;;;16.80;99.90;;;;;;4980344;28;20045;-76
2022/05/25 09:03:08;;;;;;;1.38;0.85;;;16.70;99.90;;;;;;4975231;28;20114;-68
2022/05/25 09:05:43;;;;;;;1.63;1.05;;;16.70;99.90;;;;;;4972795;28;20031;-71
2022/05/25 09:08:32;;;;;;;2.78;1.05;;;16.70;99.90;;;;;;4979598;28;20037;-76
2022/05/25 09:11:08;;;;;;;1.05;0.80;;;16.90;99.90;;;;;;4969543;28;20043;-70
2022/05/25 09:13:37;;;;;;;2.33;1.58;;;17.20;99.90;;;;;;4980254;28;20027;-71
2022/05/25 09:16:17;;;;;;;2.75;1.67;;;17.30;99.90;;;;;;4979476;28;20027;-71
2022/05/25 09:19:10;;;;;;;3.72;1.33;;;17.40;99.90;;;;;;4976840;28;20034;-78
2022/05/25 09:21:46;;;;;;;1.40;1.05;;;17.40;99.90;;;;;;4970413;28;20038;-76
2022/05/25 09:24:16;;;;;;;1.55;0.90;;;17.50;99.90;;;;;;4969912;28;20023;-72
2022/05/25 09:26:43;;;;;;;1.40;0.88;;;17.50;99.90;;;;;;4976794;28;20035;-75
2022/05/25 09:29:11;;;;;;;1.23;1.00;;;17.50;99.90;;;;;;4981134;28;20168;-74
2022/05/25 09:32:02;;;;;;;2.40;1.40;;;17.30;99.90;;;;;;4983856;28;20050;-73
2022/05/25 09:34:52;;;;;;;1.48;1.13;;;17.40;99.90;;;;;;4967159;28;20032;-73
2022/05/25 09:37:38;;;;;;;3.50;1.60;;;17.40;99.90;;;;;;4966200;28;20644;-76
2022/05/25 09:40:29;;;;;;;2.15;1.25;;;17.50;99.90;;;;;;4970040;28;20059;-81
2022/05/25 09:42:57;;;;;;;2.25;1.52;;;17.60;99.90;;;;;;4977069;28;20050;-73
2022/05/25 09:45:29;;;;;;;2.80;1.33;;;17.60;99.90;;;;;;4979569;28;20034;-73
2022/05/25 09:47:55;;;;;;;1.48;1.00;;;17.50;99.90;;;;;;4969913;28;20028;-71
2022/05/25 09:50:30;;;;;;;5.20;1.02;;;17.50;99.90;;;;;;4979103;28;20027;-71
2022/05/25 09:53:07;;;;;;;1.40;1.15;;;17.50;99.90;;;;;;4988015;28;20055;-71
2022/05/25 09:55:40;;;;;;;2.95;1.35;;;17.70;99.90;;;;;;4972986;28;20027;-69
2022/05/25 09:58:20;;;;;;;1.65;1.05;;;17.80;99.90;;;;;;4984602;28;20475;-71
2022/05/25 10:01:26;;;;;;;1.15;0.77;;;17.90;99.90;;;;;;4987473;28;20034;-77
2022/05/25 10:03:56;;;;;;;1.20;0.70;;;17.90;99.90;;;;;;4972997;28;20046;-76
2022/05/25 10:06:29;;;;;;;2.15;1.25;;;17.80;99.90;;;;;;4985880;28;20034;-73
2022/05/25 10:09:12;;;;;;;1.88;0.80;;;17.80;99.90;;;;;;4985615;28;20062;-75
2022/05/25 10:11:50;;;;;;;2.03;0.90;;;17.90;99.90;;;;;;4988588;28;20031;-72
2022/05/25 10:14:18;;;;;;;0.65;0.60;;;18.10;99.90;;;;;;4976616;28;20030;-73
2022/05/25 10:16:43;;;;;;;1.25;0.82;;;18.10;99.90;;;;;;4983439;28;20027;-72
2022/05/25 10:19:16;;;;;;;1.40;0.90;;;18.30;99.90;;;;;;4971113;28;20506;-72
2022/05/25 10:21:51;;;;;;;0.90;0.77;;;18.40;99.90;;;;;;4981142;28;20026;-80
2022/05/25 10:24:38;;;;;;;1.95;0.80;;;18.50;99.90;;;;;;4987718;28;20046;-74
2022/05/25 10:27:18;;;;;;;1.38;0.70;;;18.60;99.90;;;;;;4985372;28;20046;-71
2022/05/25 10:38:29;;;;;;;2.03;0.70;;;18.50;99.90;;;;;;4987936;28;20077;-71
2022/05/25 10:40:56;;;;;;;;;;;18.40;99.90;;;;;;4987474;28;20549;-72
2022/05/25 10:43:31;;;;;;;1.50;0.80;;;18.50;99.90;;;;;;4977614;28;19910;-74
2022/05/25 10:46:01;;;;;;;1.42;1.00;;;18.70;99.90;;;;;;4975909;28;20094;-69
2022/05/25 10:48:47;;;;;;;0.75;0.60;;;18.80;99.90;;;;;;4973995;28;20066;-73
2022/05/25 10:51:23;;;;;;;2.28;0.57;;;18.90;99.90;;;;;;4988169;28;20030;-71
2022/05/25 11:05:39;;;;;;;1.08;0.70;;;19.30;99.90;;;;;;5441548;23;20188;-71
2022/05/25 11:08:33;;;;;;;0.95;0.70;;;19.40;99.90;;;;;;5013014;28;20517;-69
2022/05/25 11:11:25;;;;;;;0.63;0.57;;;19.40;99.90;;;;;;5020216;28;20053;-72
2022/05/25 11:14:24;;;;;;;2.75;0.80;;;19.40;99.90;;;;;;5023226;28;20022;-73
2022/05/25 11:16:55;;;;;;;1.55;0.98;;;19.40;99.90;;;;;;5024458;28;20036;-72
2022/05/25 11:19:54;;;;;;;1.48;0.88;;;19.30;99.90;;;;;;5023569;28;20044;-75
2022/05/25 11:22:48;;;;;;;0.75;0.60;;;19.20;99.90;;;;;;5019111;28;20821;-69
2022/05/25 11:25:38;;;;;;;2.38;0.77;;;19.00;99.90;;;;;;5011904;28;20026;-70
2022/05/25 11:31:02;;;;;;;1.60;0.82;;;18.60;99.90;;;;;;5075871;22;20061;-72
2022/05/25 11:33:56;;;;;;;1.10;0.90;;;18.50;99.90;;;;;;5006257;28;20042;-73
2022/05/25 11:36:31;;;;;;;2.83;1.30;;;18.60;99.90;;;;;;5006892;28;20058;-71
2022/05/25 11:39:14;;;;;;;3.10;1.10;;;19.00;99.90;;;;;;5006907;28;20030;-76
2022/05/25 11:42:19;;;;;;;1.80;0.80;;;19.40;99.90;;;;;;4999915;28;20063;-72
2022/05/25 11:44:57;;;;;;;4.70;0.90;;;19.60;99.90;;;;;;4995055;28;20460;-78
2022/05/25 11:47:28;;;;;;;0.57;0.45;;;19.90;99.90;;;;;;5006776;28;20022;-76
2022/05/25 11:50:11;;;;;;;3.88;1.05;;;20.20;99.90;;;;;;5013124;28;20022;-72
2022/05/25 11:52:43;;;;;;;1.10;0.55;;;20.30;99.90;;;;;;5006570;28;20039;-73
2022/05/25 11:55:34;;;;;;;1.48;0.90;;;20.50;99.90;;;;;;4988310;28;20076;-71
2022/05/25 11:58:01;;;;;;;3.85;1.58;;;20.50;99.90;;;;;;5005601;28;20038;-75
2022/05/25 12:00:34;;;;;;;1.58;0.90;;;20.50;99.90;;;;;;4994462;28;20104;-68
2022/05/25 12:03:14;;;;;;;2.30;1.33;;;20.40;99.90;;;;;;4986776;28;20034;-73
2022/05/25 12:06:06;;;;;;;1.27;0.93;;;20.00;99.90;;;;;;4999055;28;20045;-71
2022/05/25 12:09:09;;;;;;;5.75;0.82;;;19.80;99.90;;;;;;4991519;28;20027;-74
2022/05/25 12:11:43;;;;;;;3.15;1.20;;;19.70;99.90;;;;;;4986535;28;20023;-71
2022/05/25 12:14:39;;;;;;;1.70;1.02;;;20.00;99.90;;;;;;4991592;28;20034;-70
2022/05/25 12:17:08;;;;;;;1.70;1.20;;;20.40;99.90;;;;;;5005765;28;20034;-72
2022/05/25 12:19:36;;;;;;;1.83;1.48;;;20.70;99.90;;;;;;4988462;28;20027;-71
2022/05/25 12:22:07;;;;;;;1.83;1.27;;;20.60;99.90;;;;;;5005919;28;20090;-69
2022/05/25 12:24:38;;;;;;;1.80;1.13;;;20.50;99.90;;;;;;5004786;28;20038;-73
2022/05/25 12:27:09;;;;;;;6.95;1.23;;;20.50;99.90;;;;;;4986232;28;20031;-70
2022/05/25 12:29:40;;;;;;;2.00;1.25;;;20.40;99.90;;;;;;4994719;28;20018;-70
2022/05/25 12:32:07;;;;;;;2.40;1.40;;;20.50;99.90;;;;;;5001546;28;20054;-70
2022/05/25 12:34:50;;;;;;;2.20;1.20;;;20.40;99.90;;;;;;5012994;28;20033;-68
2022/05/25 12:37:57;;;;;;;2.08;1.17;;;20.30;99.90;;;;;;5012707;28;20060;-71
2022/05/25 12:40:40;;;;;;;1.63;1.00;;;20.00;99.90;;;;;;4995207;28;20038;-71
2022/05/25 12:43:26;;;;;;;1.67;0.85;;;19.70;99.90;;;;;;4994750;28;21257;-71
2022/05/25 12:48:53;;;;;;;1.63;1.00;;;19.30;99.90;;;;;;5008586;28;20907;-69
2022/05/25 12:51:31;;;;;;;1.17;0.88;;;19.20;99.90;;;;;;5012625;28;20030;-72
2022/05/25 12:53:59;;;;;;;1.33;1.00;;;19.30;99.90;;;;;;5012179;28;20018;-69
2022/05/25 12:56:25;;;;;;;3.20;1.33;;;19.40;99.90;;;;;;5011667;28;20030;-73
2022/05/25 12:58:53;;;;;;;0.80;0.80;;;19.80;99.90;;;;;;5012268;28;20125;-74
2022/05/25 13:01:26;;;;;;;0.90;0.70;;;20.20;99.90;;;;;;5011116;28;20029;-72
2022/05/25 13:03:54;;;;;;;6.38;0.90;;;20.60;99.90;;;;;;5012077;28;20026;-71
2022/05/25 13:06:27;;;;;;;1.95;1.20;;;21.00;99.90;;;;;;4993525;28;20121;-71
2022/05/25 13:08:55;;;;;;;2.40;1.10;;;21.20;99.90;;;;;;5012433;28;20027;-73
2022/05/25 13:11:46;;;;;;;1.50;1.10;;;21.30;99.90;;;;;;5013115;28;20472;-71
2022/05/25 13:14:17;;;;;;;2.38;1.20;;;21.30;99.90;;;;;;5015728;28;20094;-70
2022/05/25 13:16:47;;;;;;;3.30;1.15;;;21.10;99.90;;;;;;5014147;28;20030;-71
2022/05/25 13:19:31;;;;;;;7.97;0.85;;;21.30;99.90;;;;;;5016185;28;20042;-68
2022/05/25 13:22:03;;;;;;;1.53;0.90;;;21.50;99.90;;;;;;5015473;28;20032;-73
2022/05/25 13:24:51;;;;;;;2.35;0.82;;;21.30;99.90;;;;;;5014100;28;20030;-72
2022/05/25 13:27:32;;;;;;;3.10;0.77;;;21.20;99.90;;;;;;5015114;28;20054;-72
2022/05/25 14:13:16;;;;;;;;;;;17.90;99.90;;;;;;5037652;28;20061;-70
2022/05/25 14:16:27;;;;;;;1.92;1.02;;;18.20;99.90;;;;;;5047467;28;19971;-73
2022/05/25 14:19:02;;;;;;;1.30;0.85;;;18.30;99.90;;;;;;5044349;28;20022;-74
2022/05/25 14:21:33;;;;;;;1.85;1.23;;;18.40;99.90;;;;;;5045381;28;20030;-75
2022/05/25 14:24:03;;;;;;;1.20;0.75;;;18.40;99.90;;;;;;5044856;28;20021;-76
2022/05/25 14:26:32;;;;;;;0.75;0.65;;;18.50;99.90;;;;;;5044759;28;20539;-74
2022/05/25 14:29:06;;;;;;;1.15;0.90;;;18.60;99.90;;;;;;5044362;28;20021;-75
2022/05/25 14:31:33;;;;;;;0.60;0.60;;;19.00;99.90;;;;;;5042238;28;20048;-74
2022/05/25 14:34:08;;;;;;;1.65;1.00;;;19.10;99.90;;;;;;5044470;28;20014;-73
2022/05/25 14:36:35;;;;;;;4.53;1.13;;;19.00;99.90;;;;;;5044333;28;20040;-74
2022/05/25 14:39:02;;;;;;;1.42;0.98;;;18.90;99.90;;;;;;5043826;28;20029;-73
2022/05/25 14:41:29;;;;;;;3.17;1.33;;;18.80;99.90;;;;;;5042042;28;20025;-76
2022/05/25 14:43:56;;;;;;;1.27;0.95;;;18.70;99.90;;;;;;5025299;28;20025;-74
2022/05/25 14:46:32;;;;;;;1.50;0.90;;;18.50;99.90;;;;;;5042543;28;20021;-73